sensor_id;sensor_type;location;lat;lon;timestamp;pressure;altitude;pressure_sealevel;temperature;humidity
65758;BME280;52495;52.208;5.158;2023-02-01T00:00:28;101880.19;;;5.65;83.50
65758;BME280;52495;52.208;5.158;2023-02-01T00:02:54;101876.91;;;5.70;82.55
65758;BME280;52495;52.208;5.158;2023-02-01T00:05:21;101879.50;;;5.73;82.96
65758;BME280;52495;52.208;5.158;2023-02-01T00:07:48;101875.19;;;5.71;82.34
65758;BME280;52495;52.208;5.158;2023-02-01T00:10:15;101884.75;;;5.78;83.02
65758;BME280;52495;52.208;5.158;2023-02-01T00:12:42;101882.19;;;5.78;82.80
65758;BME280;52495;52.208;5.158;2023-02-01T00:15:11;101879.72;;;5.84;81.75
65758;BME280;52495;52.208;5.158;2023-02-01T00:17:37;101878.88;;;5.85;82.34
65758;BME280;52495;52.208;5.158;2023-02-01T00:20:05;101879.91;;;5.93;81.68
65758;BME280;52495;52.208;5.158;2023-02-01T00:22:32;101879.03;;;5.93;81.27
65758;BME280;52495;52.208;5.158;2023-02-01T00:24:59;101871.41;;;5.96;80.78
65758;BME280;52495;52.208;5.158;2023-02-01T00:27:26;101873.16;;;5.99;80.55
65758;BME280;52495;52.208;5.158;2023-02-01T00:29:54;101874.97;;;6.03;80.48
65758;BME280;52495;52.208;5.158;2023-02-01T00:32:22;101882.72;;;6.04;80.97
65758;BME280;52495;52.208;5.158;2023-02-01T00:34:49;101871.69;;;6.10;79.48
65758;BME280;52495;52.208;5.158;2023-02-01T00:37:15;101865.69;;;6.08;80.10
65758;BME280;52495;52.208;5.158;2023-02-01T00:39:42;101870.09;;;6.17;79.48
65758;BME280;52495;52.208;5.158;2023-02-01T00:42:09;101874.28;;;6.12;79.46
65758;BME280;52495;52.208;5.158;2023-02-01T00:44:36;101869.16;;;6.12;80.19
65758;BME280;52495;52.208;5.158;2023-02-01T00:47:03;101874.31;;;6.13;79.49
65758;BME280;52495;52.208;5.158;2023-02-01T00:49:31;101870.94;;;6.14;79.26
65758;BME280;52495;52.208;5.158;2023-02-01T00:51:57;101875.16;;;6.14;79.40
65758;BME280;52495;52.208;5.158;2023-02-01T00:54:24;101870.19;;;6.21;78.93
65758;BME280;52495;52.208;5.158;2023-02-01T00:56:51;101871.00;;;6.19;79.34
65758;BME280;52495;52.208;5.158;2023-02-01T00:59:18;101863.38;;;6.23;79.09
65758;BME280;52495;52.208;5.158;2023-02-01T01:01:45;101874.53;;;6.26;79.26
65758;BME280;52495;52.208;5.158;2023-02-01T01:04:12;101858.25;;;6.22;79.15
65758;BME280;52495;52.208;5.158;2023-02-01T01:06:40;101853.97;;;6.22;78.11
65758;BME280;52495;52.208;5.158;2023-02-01T01:09:07;101851.47;;;6.27;77.68
65758;BME280;52495;52.208;5.158;2023-02-01T01:11:35;101848.84;;;6.24;78.41
65758;BME280;52495;52.208;5.158;2023-02-01T01:14:06;101852.22;;;6.21;78.15
65758;BME280;52495;52.208;5.158;2023-02-01T01:16:34;101854.84;;;6.23;78.19
65758;BME280;52495;52.208;5.158;2023-02-01T01:19:02;101858.25;;;6.23;78.12
65758;BME280;52495;52.208;5.158;2023-02-01T01:21:29;101844.53;;;6.20;77.55
65758;BME280;52495;52.208;5.158;2023-02-01T01:23:58;101849.59;;;6.18;78.19
65758;BME280;52495;52.208;5.158;2023-02-01T01:26:27;101851.31;;;6.18;78.24
65758;BME280;52495;52.208;5.158;2023-02-01T01:28:55;101854.84;;;6.23;77.81
65758;BME280;52495;52.208;5.158;2023-02-01T01:31:22;101846.28;;;6.24;77.60
65758;BME280;52495;52.208;5.158;2023-02-01T01:33:50;101854.91;;;6.28;77.71
65758;BME280;52495;52.208;5.158;2023-02-01T01:36:17;101851.53;;;6.30;77.39
65758;BME280;52495;52.208;5.158;2023-02-01T01:38:44;101854.09;;;6.30;77.07
65758;BME280;52495;52.208;5.158;2023-02-01T01:41:15;101855.81;;;6.33;77.83
65758;BME280;52495;52.208;5.158;2023-02-01T01:43:52;101854.16;;;6.35;77.76
65758;BME280;52495;52.208;5.158;2023-02-01T01:46:23;101849.88;;;6.34;77.23
65758;BME280;52495;52.208;5.158;2023-02-01T01:48:57;101849.00;;;6.33;77.33
65758;BME280;52495;52.208;5.158;2023-02-01T01:51:26;101845.63;;;6.34;77.47
65758;BME280;52495;52.208;5.158;2023-02-01T01:53:59;101829.63;;;6.51;77.40
65758;BME280;52495;52.208;5.158;2023-02-01T01:56:30;101836.31;;;6.40;77.63
65758;BME280;52495;52.208;5.158;2023-02-01T01:58:58;101836.44;;;6.49;77.88
65758;BME280;52495;52.208;5.158;2023-02-01T02:01:26;101818.66;;;6.60;77.65
65758;BME280;52495;52.208;5.158;2023-02-01T02:03:54;101819.47;;;6.57;77.17
65758;BME280;52495;52.208;5.158;2023-02-01T02:06:31;101816.81;;;6.52;78.19
65758;BME280;52495;52.208;5.158;2023-02-01T02:08:59;101821.16;;;6.57;78.58
65758;BME280;52495;52.208;5.158;2023-02-01T02:11:26;101821.88;;;6.48;78.49
65758;BME280;52495;52.208;5.158;2023-02-01T02:13:56;101827.06;;;6.52;78.99
65758;BME280;52495;52.208;5.158;2023-02-01T02:16:40;101825.34;;;6.50;79.14
65758;BME280;52495;52.208;5.158;2023-02-01T02:19:28;101820.22;;;6.51;79.43
65758;BME280;52495;52.208;5.158;2023-02-01T02:22:29;101815.84;;;6.46;79.27
65758;BME280;52495;52.208;5.158;2023-02-01T02:25:24;101802.25;;;6.50;79.75
65758;BME280;52495;52.208;5.158;2023-02-01T02:27:56;101792.03;;;6.53;78.42
65758;BME280;52495;52.208;5.158;2023-02-01T02:30:36;101787.69;;;6.47;79.54
65758;BME280;52495;52.208;5.158;2023-02-01T02:33:31;101787.69;;;6.50;78.23
65758;BME280;52495;52.208;5.158;2023-02-01T02:36:10;101790.31;;;6.53;78.23
65758;BME280;52495;52.208;5.158;2023-02-01T02:38:45;101790.25;;;6.50;78.20
65758;BME280;52495;52.208;5.158;2023-02-01T02:41:17;101794.56;;;6.51;77.83
65758;BME280;52495;52.208;5.158;2023-02-01T02:44:00;101794.66;;;6.58;78.32
65758;BME280;52495;52.208;5.158;2023-02-01T02:46:50;101791.25;;;6.59;78.03
65758;BME280;52495;52.208;5.158;2023-02-01T02:49:42;101780.94;;;6.56;78.19
65758;BME280;52495;52.208;5.158;2023-02-01T02:52:39;101769.94;;;6.63;78.48
65758;BME280;52495;52.208;5.158;2023-02-01T02:55:27;101764.81;;;6.64;78.07
65758;BME280;52495;52.208;5.158;2023-02-01T02:57:56;101765.66;;;6.63;78.52
65758;BME280;52495;52.208;5.158;2023-02-01T03:00:43;101763.03;;;6.60;78.48
65758;BME280;52495;52.208;5.158;2023-02-01T03:03:28;101756.13;;;6.53;78.47
65758;BME280;52495;52.208;5.158;2023-02-01T03:06:16;101759.41;;;6.46;78.63
65758;BME280;52495;52.208;5.158;2023-02-01T03:08:44;101767.09;;;6.44;79.44
65758;BME280;52495;52.208;5.158;2023-02-01T03:11:14;101759.38;;;6.43;79.21
65758;BME280;52495;52.208;5.158;2023-02-01T03:13:45;101748.31;;;6.45;78.82
65758;BME280;52495;52.208;5.158;2023-02-01T03:16:16;101755.97;;;6.44;79.63
65758;BME280;52495;52.208;5.158;2023-02-01T03:18:52;101750.78;;;6.39;79.69
65758;BME280;52495;52.208;5.158;2023-02-01T03:21:24;101755.00;;;6.35;79.53
65758;BME280;52495;52.208;5.158;2023-02-01T03:23:53;101753.28;;;6.34;80.18
65758;BME280;52495;52.208;5.158;2023-02-01T03:26:23;101760.13;;;6.35;79.88
65758;BME280;52495;52.208;5.158;2023-02-01T03:28:56;101762.66;;;6.34;80.50
65758;BME280;52495;52.208;5.158;2023-02-01T03:31:27;101768.59;;;6.30;80.29
65758;BME280;52495;52.208;5.158;2023-02-01T03:33:55;101770.13;;;6.18;80.42
65758;BME280;52495;52.208;5.158;2023-02-01T03:36:26;101764.19;;;6.21;81.45
65758;BME280;52495;52.208;5.158;2023-02-01T03:39:02;101765.91;;;6.22;80.77
65758;BME280;52495;52.208;5.158;2023-02-01T03:41:35;101763.25;;;6.17;80.47
65758;BME280;52495;52.208;5.158;2023-02-01T03:44:09;101757.28;;;6.17;80.94
65758;BME280;52495;52.208;5.158;2023-02-01T03:46:41;101775.19;;;6.15;80.49
65758;BME280;52495;52.208;5.158;2023-02-01T03:49:17;101761.69;;;6.26;80.04
65758;BME280;52495;52.208;5.158;2023-02-01T03:51:48;101770.28;;;6.29;80.27
65758;BME280;52495;52.208;5.158;2023-02-01T03:54:18;101762.59;;;6.29;80.25
65758;BME280;52495;52.208;5.158;2023-02-01T03:56:47;101769.44;;;6.29;79.40
65758;BME280;52495;52.208;5.158;2023-02-01T03:59:15;101769.50;;;6.35;79.19
65758;BME280;52495;52.208;5.158;2023-02-01T04:01:42;101786.63;;;6.36;79.00
65758;BME280;52495;52.208;5.158;2023-02-01T04:04:09;101772.97;;;6.37;79.10
65758;BME280;52495;52.208;5.158;2023-02-01T04:06:37;101768.00;;;6.48;78.56
65758;BME280;52495;52.208;5.158;2023-02-01T04:09:05;101766.16;;;6.39;78.99
65758;BME280;52495;52.208;5.158;2023-02-01T04:11:32;101761.03;;;6.41;78.92
65758;BME280;52495;52.208;5.158;2023-02-01T04:13:59;101773.97;;;6.47;79.53
65758;BME280;52495;52.208;5.158;2023-02-01T04:16:29;101769.72;;;6.47;78.78
65758;BME280;52495;52.208;5.158;2023-02-01T04:18:56;101777.38;;;6.46;79.30
65758;BME280;52495;52.208;5.158;2023-02-01T04:21:24;101781.72;;;6.48;78.75
65758;BME280;52495;52.208;5.158;2023-02-01T04:23:52;101792.84;;;6.50;79.23
65758;BME280;52495;52.208;5.158;2023-02-01T04:26:20;101787.75;;;6.52;79.32
65758;BME280;52495;52.208;5.158;2023-02-01T04:28:47;101774.03;;;6.51;79.40
65758;BME280;52495;52.208;5.158;2023-02-01T04:31:14;101769.72;;;6.47;79.79
65758;BME280;52495;52.208;5.158;2023-02-01T04:33:41;101774.81;;;6.46;79.62
65758;BME280;52495;52.208;5.158;2023-02-01T04:36:08;101771.28;;;6.37;80.13
65758;BME280;52495;52.208;5.158;2023-02-01T04:38:35;101776.31;;;6.31;80.65
65758;BME280;52495;52.208;5.158;2023-02-01T04:41:02;101760.91;;;6.30;80.34
65758;BME280;52495;52.208;5.158;2023-02-01T04:43:30;101768.59;;;6.30;80.00
65758;BME280;52495;52.208;5.158;2023-02-01T04:45:56;101760.84;;;6.27;80.69
65758;BME280;52495;52.208;5.158;2023-02-01T04:48:23;101765.09;;;6.23;81.11
65758;BME280;52495;52.208;5.158;2023-02-01T04:50:50;101753.84;;;6.16;81.03
65758;BME280;52495;52.208;5.158;2023-02-01T04:53:17;101761.53;;;6.15;81.16
65758;BME280;52495;52.208;5.158;2023-02-01T04:55:44;101755.66;;;6.22;80.88
65758;BME280;52495;52.208;5.158;2023-02-01T04:58:11;101758.94;;;6.15;80.85
65758;BME280;52495;52.208;5.158;2023-02-01T05:00:39;101760.63;;;6.13;80.95
65758;BME280;52495;52.208;5.158;2023-02-01T05:03:06;101764.78;;;6.06;81.03
65758;BME280;52495;52.208;5.158;2023-02-01T05:05:33;101758.88;;;6.10;81.47
65758;BME280;52495;52.208;5.158;2023-02-01T05:08:00;101761.41;;;6.07;81.20
65758;BME280;52495;52.208;5.158;2023-02-01T05:10:26;101753.69;;;6.07;81.29
65758;BME280;52495;52.208;5.158;2023-02-01T05:12:53;101752.88;;;6.08;81.75
65758;BME280;52495;52.208;5.158;2023-02-01T05:15:39;101749.47;;;6.11;82.05
65758;BME280;52495;52.208;5.158;2023-02-01T05:18:06;101740.13;;;6.13;81.72
65758;BME280;52495;52.208;5.158;2023-02-01T05:20:33;101734.03;;;6.06;82.20
65758;BME280;52495;52.208;5.158;2023-02-01T05:22:59;101764.75;;;6.03;81.82
65758;BME280;52495;52.208;5.158;2023-02-01T05:25:26;101751.22;;;6.12;81.67
65758;BME280;52495;52.208;5.158;2023-02-01T05:27:53;101779.44;;;6.13;82.32
65758;BME280;52495;52.208;5.158;2023-02-01T05:30:20;101777.75;;;6.14;82.53
65758;BME280;52495;52.208;5.158;2023-02-01T05:32:51;101786.31;;;6.16;82.05
65758;BME280;52495;52.208;5.158;2023-02-01T05:35:19;101786.25;;;6.13;81.89
65758;BME280;52495;52.208;5.158;2023-02-01T05:37:46;101774.22;;;6.08;82.73
65758;BME280;52495;52.208;5.158;2023-02-01T05:40:13;101776.84;;;6.10;82.26
65758;BME280;52495;52.208;5.158;2023-02-01T05:42:39;101781.19;;;6.14;82.04
65758;BME280;52495;52.208;5.158;2023-02-01T05:45:07;101781.31;;;6.25;82.30
65758;BME280;52495;52.208;5.158;2023-02-01T05:47:34;101774.47;;;6.22;82.67
65758;BME280;52495;52.208;5.158;2023-02-01T05:50:04;101783.81;;;6.20;83.15
65758;BME280;52495;52.208;5.158;2023-02-01T05:52:31;101771.84;;;6.19;82.40
65758;BME280;52495;52.208;5.158;2023-02-01T05:54:58;101771.00;;;6.20;82.79
65758;BME280;52495;52.208;5.158;2023-02-01T05:57:24;101795.88;;;6.25;82.40
65758;BME280;52495;52.208;5.158;2023-02-01T05:59:51;101769.38;;;6.26;82.40
65758;BME280;52495;52.208;5.158;2023-02-01T06:02:18;101767.59;;;6.20;83.23
65758;BME280;52495;52.208;5.158;2023-02-01T06:04:45;101782.09;;;6.19;83.70
65758;BME280;52495;52.208;5.158;2023-02-01T06:07:13;101780.41;;;6.20;82.88
65758;BME280;52495;52.208;5.158;2023-02-01T06:09:40;101790.56;;;6.15;83.70
65758;BME280;52495;52.208;5.158;2023-02-01T06:12:07;101763.34;;;6.22;82.93
65758;BME280;52495;52.208;5.158;2023-02-01T06:14:34;101778.66;;;6.17;83.52
65758;BME280;52495;52.208;5.158;2023-02-01T06:17:03;101780.31;;;6.15;83.44
65758;BME280;52495;52.208;5.158;2023-02-01T06:19:31;101773.50;;;6.17;83.36
65758;BME280;52495;52.208;5.158;2023-02-01T06:21:57;101782.88;;;6.14;82.99
65758;BME280;52495;52.208;5.158;2023-02-01T06:24:26;101785.44;;;6.14;83.09
65758;BME280;52495;52.208;5.158;2023-02-01T06:26:52;101777.66;;;6.09;82.80
65758;BME280;52495;52.208;5.158;2023-02-01T06:29:19;101781.69;;;5.95;83.84
65758;BME280;52495;52.208;5.158;2023-02-01T06:31:46;101788.53;;;5.97;83.41
65758;BME280;52495;52.208;5.158;2023-02-01T06:34:13;101779.97;;;5.95;83.72
65758;BME280;52495;52.208;5.158;2023-02-01T06:36:39;101778.16;;;5.89;83.03
65758;BME280;52495;52.208;5.158;2023-02-01T06:39:06;101773.03;;;5.89;83.93
65758;BME280;52495;52.208;5.158;2023-02-01T06:41:34;101780.03;;;5.98;83.13
65758;BME280;52495;52.208;5.158;2023-02-01T06:44:01;101779.22;;;6.01;83.61
65758;BME280;52495;52.208;5.158;2023-02-01T06:46:28;101787.69;;;5.97;83.29
65758;BME280;52495;52.208;5.158;2023-02-01T06:48:54;101791.88;;;5.93;83.27
65758;BME280;52495;52.208;5.158;2023-02-01T06:51:23;101789.38;;;5.96;83.62
65758;BME280;52495;52.208;5.158;2023-02-01T06:53:50;101787.63;;;5.93;83.80
65758;BME280;52495;52.208;5.158;2023-02-01T06:56:17;101787.81;;;6.03;83.75
65758;BME280;52495;52.208;5.158;2023-02-01T06:58:46;101786.91;;;6.01;84.01
65758;BME280;52495;52.208;5.158;2023-02-01T07:01:13;101784.47;;;6.07;83.63
65758;BME280;52495;52.208;5.158;2023-02-01T07:03:40;101785.50;;;6.17;82.62
65758;BME280;52495;52.208;5.158;2023-02-01T07:06:07;101786.22;;;6.10;83.49
65758;BME280;52495;52.208;5.158;2023-02-01T07:08:36;101787.97;;;6.12;83.85
65758;BME280;52495;52.208;5.158;2023-02-01T07:11:04;101783.69;;;6.11;83.93
65758;BME280;52495;52.208;5.158;2023-02-01T07:13:32;101791.47;;;6.17;83.85
65758;BME280;52495;52.208;5.158;2023-02-01T07:16:02;101779.47;;;6.15;83.09
65758;BME280;52495;52.208;5.158;2023-02-01T07:18:29;101785.53;;;6.20;83.16
65758;BME280;52495;52.208;5.158;2023-02-01T07:20:56;101788.91;;;6.17;83.00
65758;BME280;52495;52.208;5.158;2023-02-01T07:23:24;101781.25;;;6.19;83.82
65758;BME280;52495;52.208;5.158;2023-02-01T07:25:53;101778.75;;;6.23;83.00
65758;BME280;52495;52.208;5.158;2023-02-01T07:28:20;101796.66;;;6.20;83.35
65758;BME280;52495;52.208;5.158;2023-02-01T07:30:47;101789.78;;;6.19;82.89
65758;BME280;52495;52.208;5.158;2023-02-01T07:33:19;101787.28;;;6.21;83.24
65758;BME280;52495;52.208;5.158;2023-02-01T07:35:47;101777.88;;;6.21;82.84
65758;BME280;52495;52.208;5.158;2023-02-01T07:38:14;101776.97;;;6.18;83.33
65758;BME280;52495;52.208;5.158;2023-02-01T07:40:41;101788.91;;;6.17;83.01
65758;BME280;52495;52.208;5.158;2023-02-01T07:43:08;101794.13;;;6.23;82.87
65758;BME280;52495;52.208;5.158;2023-02-01T07:45:35;101797.47;;;6.18;83.31
65758;BME280;52495;52.208;5.158;2023-02-01T07:48:03;101786.22;;;6.10;82.90
65758;BME280;52495;52.208;5.158;2023-02-01T07:50:31;101790.63;;;6.18;82.81
65758;BME280;52495;52.208;5.158;2023-02-01T07:52:59;101798.25;;;6.15;82.75
65758;BME280;52495;52.208;5.158;2023-02-01T07:55:26;101781.97;;;6.10;83.32
65758;BME280;52495;52.208;5.158;2023-02-01T07:57:57;101797.28;;;6.05;83.73
65758;BME280;52495;52.208;5.158;2023-02-01T08:00:24;101809.28;;;6.08;83.03
65758;BME280;52495;52.208;5.158;2023-02-01T08:03:08;101816.22;;;6.15;83.20
65758;BME280;52495;52.208;5.158;2023-02-01T08:05:36;101818.81;;;6.17;82.65
65758;BME280;52495;52.208;5.158;2023-02-01T08:08:03;101802.41;;;6.07;84.20
65758;BME280;52495;52.208;5.158;2023-02-01T08:10:30;101809.47;;;6.20;83.00
65758;BME280;52495;52.208;5.158;2023-02-01T08:12:58;101791.44;;;6.14;83.89
65758;BME280;52495;52.208;5.158;2023-02-01T08:15:25;101788.78;;;6.10;84.27
65758;BME280;52495;52.208;5.158;2023-02-01T08:17:52;101786.31;;;6.14;84.04
65758;BME280;52495;52.208;5.158;2023-02-01T08:20:20;101792.28;;;6.15;83.88
65758;BME280;52495;52.208;5.158;2023-02-01T08:22:49;101792.28;;;6.16;83.38
65758;BME280;52495;52.208;5.158;2023-02-01T08:25:16;101789.78;;;6.18;83.72
65758;BME280;52495;52.208;5.158;2023-02-01T08:27:43;101786.56;;;6.30;83.94
65758;BME280;52495;52.208;5.158;2023-02-01T08:30:11;101781.22;;;6.17;83.93
65758;BME280;52495;52.208;5.158;2023-02-01T08:32:38;101798.31;;;6.18;83.92
65758;BME280;52495;52.208;5.158;2023-02-01T08:35:05;101781.31;;;6.25;84.61
65758;BME280;52495;52.208;5.158;2023-02-01T08:37:33;101783.03;;;6.25;83.63
65758;BME280;52495;52.208;5.158;2023-02-01T08:40:01;101778.88;;;6.33;83.20
65758;BME280;52495;52.208;5.158;2023-02-01T08:42:28;101777.31;;;6.40;83.34
65758;BME280;52495;52.208;5.158;2023-02-01T08:45:12;101773.88;;;6.41;83.36
65758;BME280;52495;52.208;5.158;2023-02-01T08:47:39;101776.53;;;6.45;82.48
65758;BME280;52495;52.208;5.158;2023-02-01T08:50:06;101779.16;;;6.48;82.49
65758;BME280;52495;52.208;5.158;2023-02-01T08:52:34;101788.53;;;6.48;83.02
65758;BME280;52495;52.208;5.158;2023-02-01T08:55:02;101789.53;;;6.56;82.24
65758;BME280;52495;52.208;5.158;2023-02-01T08:57:29;101780.16;;;6.60;82.15
65758;BME280;52495;52.208;5.158;2023-02-01T08:59:56;101769.94;;;6.63;82.19
65758;BME280;52495;52.208;5.158;2023-02-01T09:02:22;101777.69;;;6.66;82.01
65758;BME280;52495;52.208;5.158;2023-02-01T09:04:49;101769.16;;;6.70;82.26
65758;BME280;52495;52.208;5.158;2023-02-01T09:07:16;101771.78;;;6.73;81.31
65758;BME280;52495;52.208;5.158;2023-02-01T09:09:43;101756.53;;;6.82;81.04
65758;BME280;52495;52.208;5.158;2023-02-01T09:12:12;101754.00;;;6.87;80.63
65758;BME280;52495;52.208;5.158;2023-02-01T09:14:38;101744.59;;;6.88;80.15
65758;BME280;52495;52.208;5.158;2023-02-01T09:17:05;101750.59;;;6.90;80.34
65758;BME280;52495;52.208;5.158;2023-02-01T09:19:32;101745.53;;;6.94;80.33
65758;BME280;52495;52.208;5.158;2023-02-01T09:21:59;101750.69;;;6.96;79.69
65758;BME280;52495;52.208;5.158;2023-02-01T09:24:26;101760.94;;;6.93;79.89
65758;BME280;52495;52.208;5.158;2023-02-01T09:26:53;101772.94;;;6.95;79.77
65758;BME280;52495;52.208;5.158;2023-02-01T09:29:21;101788.31;;;6.94;79.97
65758;BME280;52495;52.208;5.158;2023-02-01T09:31:48;101772.09;;;6.96;80.31
65758;BME280;52495;52.208;5.158;2023-02-01T09:34:14;101775.53;;;6.97;79.89
65758;BME280;52495;52.208;5.158;2023-02-01T09:36:41;101786.63;;;6.96;79.49
65758;BME280;52495;52.208;5.158;2023-02-01T09:39:08;101767.97;;;7.09;78.58
65758;BME280;52495;52.208;5.158;2023-02-01T09:41:45;101761.81;;;6.96;78.94
65758;BME280;52495;52.208;5.158;2023-02-01T09:44:27;101766.09;;;6.96;79.29
65758;BME280;52495;52.208;5.158;2023-02-01T09:46:58;101760.97;;;6.96;79.06
65758;BME280;52495;52.208;5.158;2023-02-01T09:49:28;101765.97;;;6.87;79.26
65758;BME280;52495;52.208;5.158;2023-02-01T09:51:56;101766.94;;;6.95;78.95
65758;BME280;52495;52.208;5.158;2023-02-01T09:54:26;101770.31;;;6.89;79.67
65758;BME280;52495;52.208;5.158;2023-02-01T09:56:56;101752.44;;;6.97;79.67
65758;BME280;52495;52.208;5.158;2023-02-01T09:59:34;101767.84;;;6.97;79.29
65758;BME280;52495;52.208;5.158;2023-02-01T10:02:11;101762.66;;;6.95;79.74
65758;BME280;52495;52.208;5.158;2023-02-01T10:04:39;101756.72;;;6.98;80.43
65758;BME280;52495;52.208;5.158;2023-02-01T10:07:13;101760.97;;;6.96;81.13
65758;BME280;52495;52.208;5.158;2023-02-01T10:09:52;101760.19;;;7.02;82.03
65758;BME280;52495;52.208;5.158;2023-02-01T10:15:39;101758.91;;;6.70;85.79
65758;BME280;52495;52.208;5.158;2023-02-01T10:18:27;101767.31;;;6.60;85.79
65758;BME280;52495;52.208;5.158;2023-02-01T10:21:02;101766.50;;;6.62;84.99
65758;BME280;52495;52.208;5.158;2023-02-01T10:23:53;101776.75;;;6.61;85.65
65758;BME280;52495;52.208;5.158;2023-02-01T10:26:23;101771.56;;;6.58;85.54
65758;BME280;52495;52.208;5.158;2023-02-01T10:28:52;101779.28;;;6.59;85.63
65758;BME280;52495;52.208;5.158;2023-02-01T10:31:24;101794.66;;;6.56;84.84
65758;BME280;52495;52.208;5.158;2023-02-01T10:33:56;101758.84;;;6.65;84.47
65758;BME280;52495;52.208;5.158;2023-02-01T10:36:28;101750.31;;;6.66;83.09
65758;BME280;52495;52.208;5.158;2023-02-01T10:38:57;101759.84;;;6.75;83.14
65758;BME280;52495;52.208;5.158;2023-02-01T10:41:31;101762.41;;;6.77;82.93
65758;BME280;52495;52.208;5.158;2023-02-01T10:44:00;101747.09;;;6.83;82.98
65758;BME280;52495;52.208;5.158;2023-02-01T10:46:30;101739.44;;;6.86;82.13
65758;BME280;52495;52.208;5.158;2023-02-01T10:49:00;101749.81;;;6.95;82.18
65758;BME280;52495;52.208;5.158;2023-02-01T10:51:33;101751.59;;;6.99;81.73
65758;BME280;52495;52.208;5.158;2023-02-01T10:54:13;101740.56;;;7.08;81.32
65758;BME280;52495;52.208;5.158;2023-02-01T10:56:43;101764.53;;;7.09;81.49
65758;BME280;52495;52.208;5.158;2023-02-01T10:59:15;101757.69;;;7.09;81.45
65758;BME280;52495;52.208;5.158;2023-02-01T11:01:46;101741.50;;;7.13;81.00
65758;BME280;52495;52.208;5.158;2023-02-01T11:04:15;101740.56;;;7.10;81.58
65758;BME280;52495;52.208;5.158;2023-02-01T11:06:43;101745.66;;;7.05;83.01
65758;BME280;52495;52.208;5.158;2023-02-01T11:09:17;101750.84;;;7.10;83.66
65758;BME280;52495;52.208;5.158;2023-02-01T11:11:57;101741.31;;;6.99;84.12
65758;BME280;52495;52.208;5.158;2023-02-01T11:14:35;101755.94;;;7.04;84.31
65758;BME280;52495;52.208;5.158;2023-02-01T11:17:21;101754.13;;;6.96;83.88
65758;BME280;52495;52.208;5.158;2023-02-01T11:19:59;101747.25;;;6.95;83.76
65758;BME280;52495;52.208;5.158;2023-02-01T11:22:27;101731.03;;;6.98;83.33
65758;BME280;52495;52.208;5.158;2023-02-01T11:24:55;101751.63;;;7.03;83.56
65758;BME280;52495;52.208;5.158;2023-02-01T11:27:23;101750.84;;;7.08;83.65
65758;BME280;52495;52.208;5.158;2023-02-01T11:29:52;101749.06;;;7.03;83.60
65758;BME280;52495;52.208;5.158;2023-02-01T11:32:22;101744.84;;;7.08;82.52
65758;BME280;52495;52.208;5.158;2023-02-01T11:34:52;101744.88;;;7.11;82.75
65758;BME280;52495;52.208;5.158;2023-02-01T11:37:23;101738.97;;;7.17;82.28
65758;BME280;52495;52.208;5.158;2023-02-01T11:39:55;101740.66;;;7.18;82.31
65758;BME280;52495;52.208;5.158;2023-02-01T11:42:22;101726.19;;;7.23;81.66
65758;BME280;52495;52.208;5.158;2023-02-01T11:44:49;101739.84;;;7.22;81.68
65758;BME280;52495;52.208;5.158;2023-02-01T11:47:23;101722.88;;;7.33;81.15
65758;BME280;52495;52.208;5.158;2023-02-01T11:49:51;101723.75;;;7.37;80.78
65758;BME280;52495;52.208;5.158;2023-02-01T11:52:29;101715.22;;;7.39;80.09
65758;BME280;52495;52.208;5.158;2023-02-01T11:58:00;101710.97;;;7.43;80.11
65758;BME280;52495;52.208;5.158;2023-02-01T12:00:55;101719.56;;;7.45;79.76
65758;BME280;52495;52.208;5.158;2023-02-01T12:03:49;101713.59;;;7.49;79.33
65758;BME280;52495;52.208;5.158;2023-02-01T12:06:28;101711.94;;;7.56;78.94
65758;BME280;52495;52.208;5.158;2023-02-01T12:09:08;101716.25;;;7.57;78.92
65758;BME280;52495;52.208;5.158;2023-02-01T12:11:49;101703.34;;;7.54;78.82
65758;BME280;52495;52.208;5.158;2023-02-01T12:14:42;101711.94;;;7.56;78.96
65758;BME280;52495;52.208;5.158;2023-02-01T12:17:25;101714.53;;;7.56;79.21
65758;BME280;52495;52.208;5.158;2023-02-01T12:20:07;101707.69;;;7.56;79.12
65758;BME280;52495;52.208;5.158;2023-02-01T12:22:45;101706.84;;;7.59;78.80
65758;BME280;52495;52.208;5.158;2023-02-01T12:25:38;101710.22;;;7.53;79.12
65758;BME280;52495;52.208;5.158;2023-02-01T12:28:33;101723.03;;;7.49;79.62
65758;BME280;52495;52.208;5.158;2023-02-01T12:31:30;101717.13;;;7.57;79.08
65758;BME280;52495;52.208;5.158;2023-02-01T12:34:11;101711.97;;;7.59;79.52
65758;BME280;52495;52.208;5.158;2023-02-01T12:36:46;101699.94;;;7.55;79.78
65758;BME280;52495;52.208;5.158;2023-02-01T12:39:23;101694.81;;;7.55;80.08
65758;BME280;52495;52.208;5.158;2023-02-01T12:41:52;101708.44;;;7.46;80.31
65758;BME280;52495;52.208;5.158;2023-02-01T12:44:27;101710.19;;;7.52;80.49
65758;BME280;52495;52.208;5.158;2023-02-01T12:46:58;101714.53;;;7.56;80.08
65758;BME280;52495;52.208;5.158;2023-02-01T12:49:34;101712.88;;;7.59;79.74
65758;BME280;52495;52.208;5.158;2023-02-01T12:52:06;101700.88;;;7.63;79.87
65758;BME280;52495;52.208;5.158;2023-02-01T12:54:40;101698.31;;;7.65;80.03
65758;BME280;52495;52.208;5.158;2023-02-01T12:57:12;101703.47;;;7.63;80.31
65758;BME280;52495;52.208;5.158;2023-02-01T12:59:44;101709.41;;;7.59;80.08
65758;BME280;52495;52.208;5.158;2023-02-01T13:02:19;101715.47;;;7.64;79.74
65758;BME280;52495;52.208;5.158;2023-02-01T13:04:58;101721.38;;;7.57;80.22
65758;BME280;52495;52.208;5.158;2023-02-01T13:07:31;101711.13;;;7.62;79.81
65758;BME280;52495;52.208;5.158;2023-02-01T13:10:04;101705.94;;;7.54;80.08
65758;BME280;52495;52.208;5.158;2023-02-01T13:12:36;101711.09;;;7.55;80.35
65758;BME280;52495;52.208;5.158;2023-02-01T13:15:10;101712.88;;;7.63;80.10
65758;BME280;52495;52.208;5.158;2023-02-01T13:17:40;101708.56;;;7.60;79.73
65758;BME280;52495;52.208;5.158;2023-02-01T13:20:17;101711.16;;;7.65;80.13
65758;BME280;52495;52.208;5.158;2023-02-01T13:22:50;101715.44;;;7.61;79.77
65758;BME280;52495;52.208;5.158;2023-02-01T13:25:26;101712.94;;;7.69;79.83